sensor_id;sensor_type;location;lat;lon;timestamp;temperature;humidity
27226;DHT22;14732;51.074;3.788;2023-12-20T00:01:47;7.70;99.90
27226;DHT22;14732;51.074;3.788;2023-12-20T00:04:13;7.70;99.90
27226;DHT22;14732;51.074;3.788;2023-12-20T00:06:38;7.70;99.90
27226;DHT22;14732;51.074;3.788;2023-12-20T00:09:04;7.70;99.90
27226;DHT22;14732;51.074;3.788;2023-12-20T00:11:30;7.80;99.90
27226;DHT22;14732;51.074;3.788;2023-12-20T00:13:55;7.80;99.90
27226;DHT22;14732;51.074;3.788;2023-12-20T00:16:21;7.70;99.90
27226;DHT22;14732;51.074;3.788;2023-12-20T00:18:47;7.80;99.90
27226;DHT22;14732;51.074;3.788;2023-12-20T00:21:12;7.60;99.90
27226;DHT22;14732;51.074;3.788;2023-12-20T00:23:38;7.60;99.90
27226;DHT22;14732;51.074;3.788;2023-12-20T00:26:03;7.50;99.90
27226;DHT22;14732;51.074;3.788;2023-12-20T00:28:29;7.50;99.90
27226;DHT22;14732;51.074;3.788;2023-12-20T00:30:55;7.40;99.90
27226;DHT22;14732;51.074;3.788;2023-12-20T00:33:21;7.40;99.90
27226;DHT22;14732;51.074;3.788;2023-12-20T00:35:46;7.40;99.90
27226;DHT22;14732;51.074;3.788;2023-12-20T00:38:12;7.40;99.90
27226;DHT22;14732;51.074;3.788;2023-12-20T00:40:38;7.40;99.90
27226;DHT22;14732;51.074;3.788;2023-12-20T00:43:03;7.40;99.90
27226;DHT22;14732;51.074;3.788;2023-12-20T00:45:29;7.30;99.90
27226;DHT22;14732;51.074;3.788;2023-12-20T00:47:55;7.30;99.90
27226;DHT22;14732;51.074;3.788;2023-12-20T00:50:20;7.40;99.90
27226;DHT22;14732;51.074;3.788;2023-12-20T00:52:47;7.40;99.90
27226;DHT22;14732;51.074;3.788;2023-12-20T00:55:13;7.30;99.90
27226;DHT22;14732;51.074;3.788;2023-12-20T00:57:39;7.50;99.90
27226;DHT22;14732;51.074;3.788;2023-12-20T01:00:05;7.40;99.90
27226;DHT22;14732;51.074;3.788;2023-12-20T01:02:31;7.40;99.90
27226;DHT22;14732;51.074;3.788;2023-12-20T01:04:57;7.30;99.90
27226;DHT22;14732;51.074;3.788;2023-12-20T01:07:22;7.30;99.90
27226;DHT22;14732;51.074;3.788;2023-12-20T01:09:48;7.30;99.90
27226;DHT22;14732;51.074;3.788;2023-12-20T01:12:14;7.40;99.90
27226;DHT22;14732;51.074;3.788;2023-12-20T01:14:39;7.40;99.90
27226;DHT22;14732;51.074;3.788;2023-12-20T01:17:05;7.30;99.90
27226;DHT22;14732;51.074;3.788;2023-12-20T01:19:31;7.30;99.90
27226;DHT22;14732;51.074;3.788;2023-12-20T01:21:56;7.30;99.90
27226;DHT22;14732;51.074;3.788;2023-12-20T01:24:22;7.40;99.90
27226;DHT22;14732;51.074;3.788;2023-12-20T01:26:47;7.40;99.90
27226;DHT22;14732;51.074;3.788;2023-12-20T01:29:13;7.30;99.90
27226;DHT22;14732;51.074;3.788;2023-12-20T01:31:40;7.50;99.90
27226;DHT22;14732;51.074;3.788;2023-12-20T01:34:06;7.40;99.90
27226;DHT22;14732;51.074;3.788;2023-12-20T01:36:32;7.50;99.90
27226;DHT22;14732;51.074;3.788;2023-12-20T01:38:57;7.40;99.90
27226;DHT22;14732;51.074;3.788;2023-12-20T01:41:23;7.30;99.90
27226;DHT22;14732;51.074;3.788;2023-12-20T01:43:48;7.20;99.90
27226;DHT22;14732;51.074;3.788;2023-12-20T01:46:15;7.20;99.90
27226;DHT22;14732;51.074;3.788;2023-12-20T01:48:41;7.30;99.90
27226;DHT22;14732;51.074;3.788;2023-12-20T01:51:07;7.30;99.90
27226;DHT22;14732;51.074;3.788;2023-12-20T01:53:33;7.30;99.90
27226;DHT22;14732;51.074;3.788;2023-12-20T01:55:59;7.40;99.90
27226;DHT22;14732;51.074;3.788;2023-12-20T01:58:26;7.50;99.90
27226;DHT22;14732;51.074;3.788;2023-12-20T02:00:52;7.50;99.90
27226;DHT22;14732;51.074;3.788;2023-12-20T02:03:18;7.50;99.90
27226;DHT22;14732;51.074;3.788;2023-12-20T02:05:44;7.70;99.90
27226;DHT22;14732;51.074;3.788;2023-12-20T02:08:11;7.90;99.90
27226;DHT22;14732;51.074;3.788;2023-12-20T02:10:36;7.80;99.90
27226;DHT22;14732;51.074;3.788;2023-12-20T02:13:03;7.80;99.90
27226;DHT22;14732;51.074;3.788;2023-12-20T02:15:29;7.60;99.90
27226;DHT22;14732;51.074;3.788;2023-12-20T02:17:55;7.60;99.90
27226;DHT22;14732;51.074;3.788;2023-12-20T02:20:21;7.60;99.90
27226;DHT22;14732;51.074;3.788;2023-12-20T02:22:47;7.80;99.90
27226;DHT22;14732;51.074;3.788;2023-12-20T02:25:13;7.90;99.90
27226;DHT22;14732;51.074;3.788;2023-12-20T02:27:39;7.90;99.90
27226;DHT22;14732;51.074;3.788;2023-12-20T02:30:07;8.00;99.90
27226;DHT22;14732;51.074;3.788;2023-12-20T02:32:33;8.00;99.90
27226;DHT22;14732;51.074;3.788;2023-12-20T02:34:59;8.00;99.90
27226;DHT22;14732;51.074;3.788;2023-12-20T02:37:25;7.90;99.90
27226;DHT22;14732;51.074;3.788;2023-12-20T02:39:50;7.80;99.90
27226;DHT22;14732;51.074;3.788;2023-12-20T02:42:16;7.70;99.90
27226;DHT22;14732;51.074;3.788;2023-12-20T02:44:41;7.60;99.90
27226;DHT22;14732;51.074;3.788;2023-12-20T02:47:07;7.60;99.90
27226;DHT22;14732;51.074;3.788;2023-12-20T02:49:33;7.70;99.90
27226;DHT22;14732;51.074;3.788;2023-12-20T02:51:58;7.60;99.90
27226;DHT22;14732;51.074;3.788;2023-12-20T02:54:24;7.70;99.90
27226;DHT22;14732;51.074;3.788;2023-12-20T02:56:49;7.70;99.90
27226;DHT22;14732;51.074;3.788;2023-12-20T02:59:15;7.70;99.90
27226;DHT22;14732;51.074;3.788;2023-12-20T03:01:45;7.80;99.90
27226;DHT22;14732;51.074;3.788;2023-12-20T03:04:11;7.80;99.90
27226;DHT22;14732;51.074;3.788;2023-12-20T03:06:38;7.80;99.90
27226;DHT22;14732;51.074;3.788;2023-12-20T03:09:04;7.80;99.90
27226;DHT22;14732;51.074;3.788;2023-12-20T03:11:30;7.90;99.90
27226;DHT22;14732;51.074;3.788;2023-12-20T03:13:56;7.90;99.90
27226;DHT22;14732;51.074;3.788;2023-12-20T03:16:22;8.00;99.90
27226;DHT22;14732;51.074;3.788;2023-12-20T03:18:47;7.80;99.90
27226;DHT22;14732;51.074;3.788;2023-12-20T03:21:13;7.70;99.90
27226;DHT22;14732;51.074;3.788;2023-12-20T03:23:39;7.80;99.90
27226;DHT22;14732;51.074;3.788;2023-12-20T03:26:07;7.80;99.90
27226;DHT22;14732;51.074;3.788;2023-12-20T03:28:33;7.90;99.90
27226;DHT22;14732;51.074;3.788;2023-12-20T03:30:59;7.80;99.90
27226;DHT22;14732;51.074;3.788;2023-12-20T03:33:25;7.80;99.90
27226;DHT22;14732;51.074;3.788;2023-12-20T03:35:50;7.90;99.90
27226;DHT22;14732;51.074;3.788;2023-12-20T03:38:16;8.00;99.90
27226;DHT22;14732;51.074;3.788;2023-12-20T03:40:41;8.10;99.90
27226;DHT22;14732;51.074;3.788;2023-12-20T03:43:07;8.10;99.90
27226;DHT22;14732;51.074;3.788;2023-12-20T03:45:33;8.20;99.90
27226;DHT22;14732;51.074;3.788;2023-12-20T03:47:59;8.30;99.90
27226;DHT22;14732;51.074;3.788;2023-12-20T03:50:25;8.30;99.90
27226;DHT22;14732;51.074;3.788;2023-12-20T03:52:51;8.10;99.90
27226;DHT22;14732;51.074;3.788;2023-12-20T03:55:16;8.10;99.90
27226;DHT22;14732;51.074;3.788;2023-12-20T03:57:42;8.00;99.90
27226;DHT22;14732;51.074;3.788;2023-12-20T04:00:08;8.00;99.90
27226;DHT22;14732;51.074;3.788;2023-12-20T04:02:41;8.10;99.90
27226;DHT22;14732;51.074;3.788;2023-12-20T04:05:07;8.10;99.90
27226;DHT22;14732;51.074;3.788;2023-12-20T04:07:33;8.00;99.90
27226;DHT22;14732;51.074;3.788;2023-12-20T04:09:59;8.10;99.90
27226;DHT22;14732;51.074;3.788;2023-12-20T04:12:30;8.20;99.90
27226;DHT22;14732;51.074;3.788;2023-12-20T04:14:56;8.10;99.90
27226;DHT22;14732;51.074;3.788;2023-12-20T04:17:22;8.10;99.90
27226;DHT22;14732;51.074;3.788;2023-12-20T04:19:50;8.20;99.90
27226;DHT22;14732;51.074;3.788;2023-12-20T04:22:17;8.30;99.90
27226;DHT22;14732;51.074;3.788;2023-12-20T04:24:44;8.30;99.90
27226;DHT22;14732;51.074;3.788;2023-12-20T04:27:09;8.40;99.90
27226;DHT22;14732;51.074;3.788;2023-12-20T04:29:35;8.30;99.90
27226;DHT22;14732;51.074;3.788;2023-12-20T04:32:01;8.20;99.90
27226;DHT22;14732;51.074;3.788;2023-12-20T04:34:26;8.10;99.90
27226;DHT22;14732;51.074;3.788;2023-12-20T04:36:52;8.10;99.90
27226;DHT22;14732;51.074;3.788;2023-12-20T04:39:18;8.10;99.90
27226;DHT22;14732;51.074;3.788;2023-12-20T04:41:43;8.00;99.90
27226;DHT22;14732;51.074;3.788;2023-12-20T04:44:09;7.90;99.90
27226;DHT22;14732;51.074;3.788;2023-12-20T04:46:35;8.00;99.90
27226;DHT22;14732;51.074;3.788;2023-12-20T04:49:01;7.90;99.90
27226;DHT22;14732;51.074;3.788;2023-12-20T04:51:27;7.90;99.90
27226;DHT22;14732;51.074;3.788;2023-12-20T04:53:52;7.60;99.90
27226;DHT22;14732;51.074;3.788;2023-12-20T04:56:18;7.60;99.90
27226;DHT22;14732;51.074;3.788;2023-12-20T04:58:44;7.60;99.90
27226;DHT22;14732;51.074;3.788;2023-12-20T05:01:10;7.50;99.90
27226;DHT22;14732;51.074;3.788;2023-12-20T05:03:35;7.50;99.90
27226;DHT22;14732;51.074;3.788;2023-12-20T05:06:01;7.40;99.90
27226;DHT22;14732;51.074;3.788;2023-12-20T05:08:27;7.30;99.90
27226;DHT22;14732;51.074;3.788;2023-12-20T05:10:56;7.30;99.90
27226;DHT22;14732;51.074;3.788;2023-12-20T05:13:22;7.20;99.90
27226;DHT22;14732;51.074;3.788;2023-12-20T05:15:47;7.30;99.90
27226;DHT22;14732;51.074;3.788;2023-12-20T05:18:13;7.40;99.90
27226;DHT22;14732;51.074;3.788;2023-12-20T05:20:39;7.50;99.90
27226;DHT22;14732;51.074;3.788;2023-12-20T05:23:05;7.60;99.90
27226;DHT22;14732;51.074;3.788;2023-12-20T05:25:31;7.70;99.90
27226;DHT22;14732;51.074;3.788;2023-12-20T05:27:57;7.70;99.90
27226;DHT22;14732;51.074;3.788;2023-12-20T05:30:22;8.00;99.90
27226;DHT22;14732;51.074;3.788;2023-12-20T05:32:48;8.10;99.90
27226;DHT22;14732;51.074;3.788;2023-12-20T05:35:14;7.80;99.90
27226;DHT22;14732;51.074;3.788;2023-12-20T05:37:41;7.80;99.90
27226;DHT22;14732;51.074;3.788;2023-12-20T05:40:07;7.80;99.90
27226;DHT22;14732;51.074;3.788;2023-12-20T05:42:36;7.80;99.90
27226;DHT22;14732;51.074;3.788;2023-12-20T05:45:02;7.80;99.90
27226;DHT22;14732;51.074;3.788;2023-12-20T05:47:27;7.80;99.90
27226;DHT22;14732;51.074;3.788;2023-12-20T05:49:53;7.60;99.90
27226;DHT22;14732;51.074;3.788;2023-12-20T05:52:19;7.60;99.90
27226;DHT22;14732;51.074;3.788;2023-12-20T05:54:44;7.80;99.90
27226;DHT22;14732;51.074;3.788;2023-12-20T05:57:10;7.70;99.90
27226;DHT22;14732;51.074;3.788;2023-12-20T05:59:36;7.50;99.90
27226;DHT22;14732;51.074;3.788;2023-12-20T06:02:03;7.50;99.90
27226;DHT22;14732;51.074;3.788;2023-12-20T06:04:29;7.30;99.90
27226;DHT22;14732;51.074;3.788;2023-12-20T06:06:55;7.30;99.90
27226;DHT22;14732;51.074;3.788;2023-12-20T06:09:20;7.40;99.90
27226;DHT22;14732;51.074;3.788;2023-12-20T06:11:46;7.30;99.90
27226;DHT22;14732;51.074;3.788;2023-12-20T06:14:11;7.20;99.90
27226;DHT22;14732;51.074;3.788;2023-12-20T06:16:37;7.20;99.90
27226;DHT22;14732;51.074;3.788;2023-12-20T06:19:03;7.30;99.90
27226;DHT22;14732;51.074;3.788;2023-12-20T06:21:28;7.20;99.90
27226;DHT22;14732;51.074;3.788;2023-12-20T06:23:54;7.20;99.90
27226;DHT22;14732;51.074;3.788;2023-12-20T06:26:20;7.10;99.90
27226;DHT22;14732;51.074;3.788;2023-12-20T06:28:46;7.00;99.90
27226;DHT22;14732;51.074;3.788;2023-12-20T06:31:11;7.00;99.90
27226;DHT22;14732;51.074;3.788;2023-12-20T06:33:38;6.90;99.90
27226;DHT22;14732;51.074;3.788;2023-12-20T06:36:06;7.00;99.90
27226;DHT22;14732;51.074;3.788;2023-12-20T06:38:32;7.00;99.90
27226;DHT22;14732;51.074;3.788;2023-12-20T06:40:57;7.00;99.90
27226;DHT22;14732;51.074;3.788;2023-12-20T06:43:24;7.10;99.90
27226;DHT22;14732;51.074;3.788;2023-12-20T06:45:49;7.10;99.90
27226;DHT22;14732;51.074;3.788;2023-12-20T06:48:16;6.90;99.90
27226;DHT22;14732;51.074;3.788;2023-12-20T06:50:42;6.80;99.90
27226;DHT22;14732;51.074;3.788;2023-12-20T06:53:07;6.90;99.90
27226;DHT22;14732;51.074;3.788;2023-12-20T06:55:35;6.90;99.90
27226;DHT22;14732;51.074;3.788;2023-12-20T06:58:02;6.70;99.90
27226;DHT22;14732;51.074;3.788;2023-12-20T07:00:28;6.60;99.90
27226;DHT22;14732;51.074;3.788;2023-12-20T07:02:54;6.60;99.90
27226;DHT22;14732;51.074;3.788;2023-12-20T07:05:19;6.60;99.90
27226;DHT22;14732;51.074;3.788;2023-12-20T07:07:48;6.70;99.90
27226;DHT22;14732;51.074;3.788;2023-12-20T07:10:14;6.70;99.90
27226;DHT22;14732;51.074;3.788;2023-12-20T07:12:39;6.70;99.90
27226;DHT22;14732;51.074;3.788;2023-12-20T07:15:05;6.60;99.90
27226;DHT22;14732;51.074;3.788;2023-12-20T07:17:33;6.60;99.90
27226;DHT22;14732;51.074;3.788;2023-12-20T07:19:59;6.60;99.90
27226;DHT22;14732;51.074;3.788;2023-12-20T07:22:29;6.60;99.90
27226;DHT22;14732;51.074;3.788;2023-12-20T07:24:57;6.50;99.90
27226;DHT22;14732;51.074;3.788;2023-12-20T07:27:23;6.60;99.90
27226;DHT22;14732;51.074;3.788;2023-12-20T07:29:48;6.60;99.90
27226;DHT22;14732;51.074;3.788;2023-12-20T07:32:14;6.50;99.90
27226;DHT22;14732;51.074;3.788;2023-12-20T07:34:39;6.50;99.90
27226;DHT22;14732;51.074;3.788;2023-12-20T07:37:05;6.50;99.90
27226;DHT22;14732;51.074;3.788;2023-12-20T07:39:31;6.40;99.90
27226;DHT22;14732;51.074;3.788;2023-12-20T07:41:56;6.30;99.90
27226;DHT22;14732;51.074;3.788;2023-12-20T07:44:22;6.40;99.90
27226;DHT22;14732;51.074;3.788;2023-12-20T07:46:48;6.40;99.90
27226;DHT22;14732;51.074;3.788;2023-12-20T07:49:15;6.40;99.90
27226;DHT22;14732;51.074;3.788;2023-12-20T07:51:40;6.60;99.90
27226;DHT22;14732;51.074;3.788;2023-12-20T07:54:06;6.60;99.90
27226;DHT22;14732;51.074;3.788;2023-12-20T07:56:33;6.70;99.90
27226;DHT22;14732;51.074;3.788;2023-12-20T07:58:59;6.70;99.90
27226;DHT22;14732;51.074;3.788;2023-12-20T08:01:24;6.80;99.90
27226;DHT22;14732;51.074;3.788;2023-12-20T08:03:50;6.70;99.90
27226;DHT22;14732;51.074;3.788;2023-12-20T08:06:16;6.70;99.90
27226;DHT22;14732;51.074;3.788;2023-12-20T08:08:42;6.80;99.90
27226;DHT22;14732;51.074;3.788;2023-12-20T08:11:08;6.90;99.90
27226;DHT22;14732;51.074;3.788;2023-12-20T08:13:34;6.90;99.90
27226;DHT22;14732;51.074;3.788;2023-12-20T08:15:59;6.90;99.90
27226;DHT22;14732;51.074;3.788;2023-12-20T08:18:25;6.80;99.90
27226;DHT22;14732;51.074;3.788;2023-12-20T08:20:50;6.80;99.90
27226;DHT22;14732;51.074;3.788;2023-12-20T08:23:19;6.80;99.90
27226;DHT22;14732;51.074;3.788;2023-12-20T08:25:46;6.80;99.90
27226;DHT22;14732;51.074;3.788;2023-12-20T08:28:12;6.90;99.90
27226;DHT22;14732;51.074;3.788;2023-12-20T08:30:38;6.70;99.90
27226;DHT22;14732;51.074;3.788;2023-12-20T08:33:04;6.90;99.90
27226;DHT22;14732;51.074;3.788;2023-12-20T08:35:30;7.00;99.90
27226;DHT22;14732;51.074;3.788;2023-12-20T08:37:56;7.10;99.90
27226;DHT22;14732;51.074;3.788;2023-12-20T08:40:22;7.00;99.90
27226;DHT22;14732;51.074;3.788;2023-12-20T08:42:47;7.00;99.90
27226;DHT22;14732;51.074;3.788;2023-12-20T08:45:13;7.10;99.90
27226;DHT22;14732;51.074;3.788;2023-12-20T08:47:39;7.20;99.90
27226;DHT22;14732;51.074;3.788;2023-12-20T08:50:06;7.20;99.90
27226;DHT22;14732;51.074;3.788;2023-12-20T08:52:32;7.10;99.90
27226;DHT22;14732;51.074;3.788;2023-12-20T08:54:58;7.00;99.90
27226;DHT22;14732;51.074;3.788;2023-12-20T08:57:24;7.00;99.90
27226;DHT22;14732;51.074;3.788;2023-12-20T08:59:50;7.00;99.90
27226;DHT22;14732;51.074;3.788;2023-12-20T09:02:17;7.00;99.90
27226;DHT22;14732;51.074;3.788;2023-12-20T09:04:43;7.00;99.90
27226;DHT22;14732;51.074;3.788;2023-12-20T09:07:24;7.00;99.90
27226;DHT22;14732;51.074;3.788;2023-12-20T09:09:50;7.00;99.90
27226;DHT22;14732;51.074;3.788;2023-12-20T09:12:20;7.00;99.90
27226;DHT22;14732;51.074;3.788;2023-12-20T09:14:47;7.30;99.90
27226;DHT22;14732;51.074;3.788;2023-12-20T09:17:13;7.30;99.90
27226;DHT22;14732;51.074;3.788;2023-12-20T09:19:39;7.50;99.90
27226;DHT22;14732;51.074;3.788;2023-12-20T09:22:06;7.40;99.90
27226;DHT22;14732;51.074;3.788;2023-12-20T09:24:32;7.50;99.90
27226;DHT22;14732;51.074;3.788;2023-12-20T09:26:58;7.50;99.90
27226;DHT22;14732;51.074;3.788;2023-12-20T09:29:24;7.50;99.90
27226;DHT22;14732;51.074;3.788;2023-12-20T09:31:50;7.50;99.90
27226;DHT22;14732;51.074;3.788;2023-12-20T09:34:16;7.70;99.90
27226;DHT22;14732;51.074;3.788;2023-12-20T09:36:42;7.80;99.90
27226;DHT22;14732;51.074;3.788;2023-12-20T09:39:15;7.70;99.90
27226;DHT22;14732;51.074;3.788;2023-12-20T09:41:45;8.10;99.90
27226;DHT22;14732;51.074;3.788;2023-12-20T09:44:15;8.30;99.90
27226;DHT22;14732;51.074;3.788;2023-12-20T09:46:45;8.50;99.90
27226;DHT22;14732;51.074;3.788;2023-12-20T09:49:12;8.60;99.90
27226;DHT22;14732;51.074;3.788;2023-12-20T09:51:39;8.80;99.90
27226;DHT22;14732;51.074;3.788;2023-12-20T09:54:06;8.80;99.90
27226;DHT22;14732;51.074;3.788;2023-12-20T09:56:32;8.70;99.90
27226;DHT22;14732;51.074;3.788;2023-12-20T09:58:59;8.70;99.90
27226;DHT22;14732;51.074;3.788;2023-12-20T10:01:25;8.60;99.90
27226;DHT22;14732;51.074;3.788;2023-12-20T10:03:54;8.60;99.90
27226;DHT22;14732;51.074;3.788;2023-12-20T10:06:21;8.80;99.90
27226;DHT22;14732;51.074;3.788;2023-12-20T10:08:47;8.70;99.90
27226;DHT22;14732;51.074;3.788;2023-12-20T10:11:12;8.50;99.90
27226;DHT22;14732;51.074;3.788;2023-12-20T10:13:40;8.50;99.90
27226;DHT22;14732;51.074;3.788;2023-12-20T10:16:09;8.60;99.90
27226;DHT22;14732;51.074;3.788;2023-12-20T10:18:34;8.70;99.90
27226;DHT22;14732;51.074;3.788;2023-12-20T10:21:01;8.70;99.90
27226;DHT22;14732;51.074;3.788;2023-12-20T10:23:26;8.60;99.90
27226;DHT22;14732;51.074;3.788;2023-12-20T10:25:59;8.60;99.90
27226;DHT22;14732;51.074;3.788;2023-12-20T10:28:25;8.60;99.90
27226;DHT22;14732;51.074;3.788;2023-12-20T10:30:54;8.60;99.90
27226;DHT22;14732;51.074;3.788;2023-12-20T10:33:27;8.50;99.90
27226;DHT22;14732;51.074;3.788;2023-12-20T10:35:55;8.50;99.90
27226;DHT22;14732;51.074;3.788;2023-12-20T10:38:20;8.50;99.90
27226;DHT22;14732;51.074;3.788;2023-12-20T10:40:47;8.60;99.90
27226;DHT22;14732;51.074;3.788;2023-12-20T10:43:13;8.60;99.90
27226;DHT22;14732;51.074;3.788;2023-12-20T10:45:42;8.60;99.90
27226;DHT22;14732;51.074;3.788;2023-12-20T10:48:10;8.70;99.90
27226;DHT22;14732;51.074;3.788;2023-12-20T10:50:37;8.80;99.90
27226;DHT22;14732;51.074;3.788;2023-12-20T10:53:07;8.80;99.90
27226;DHT22;14732;51.074;3.788;2023-12-20T10:55:33;8.80;99.90
27226;DHT22;14732;51.074;3.788;2023-12-20T10:58:08;8.80;99.90
27226;DHT22;14732;51.074;3.788;2023-12-20T11:00:39;9.00;99.90
27226;DHT22;14732;51.074;3.788;2023-12-20T11:03:09;8.80;99.90
27226;DHT22;14732;51.074;3.788;2023-12-20T11:05:49;8.70;99.90
27226;DHT22;14732;51.074;3.788;2023-12-20T11:08:27;8.90;99.90
27226;DHT22;14732;51.074;3.788;2023-12-20T11:11:12;8.90;99.90
27226;DHT22;14732;51.074;3.788;2023-12-20T11:13:58;8.90;99.90
27226;DHT22;14732;51.074;3.788;2023-12-20T11:16:25;8.80;99.90
27226;DHT22;14732;51.074;3.788;2023-12-20T11:18:51;8.80;99.90
27226;DHT22;14732;51.074;3.788;2023-12-20T11:21:17;8.90;99.90
27226;DHT22;14732;51.074;3.788;2023-12-20T11:23:42;8.90;99.90
27226;DHT22;14732;51.074;3.788;2023-12-20T11:26:08;8.90;99.90
27226;DHT22;14732;51.074;3.788;2023-12-20T11:28:34;8.90;99.90
27226;DHT22;14732;51.074;3.788;2023-12-20T11:31:01;8.90;99.90
27226;DHT22;14732;51.074;3.788;2023-12-20T11:33:39;9.00;99.90
27226;DHT22;14732;51.074;3.788;2023-12-20T11:36:13;9.10;99.90
27226;DHT22;14732;51.074;3.788;2023-12-20T11:38:57;9.20;99.90
27226;DHT22;14732;51.074;3.788;2023-12-20T11:41:26;9.30;99.90
27226;DHT22;14732;51.074;3.788;2023-12-20T11:43:55;9.30;99.90
27226;DHT22;14732;51.074;3.788;2023-12-20T11:46:22;9.30;99.90
27226;DHT22;14732;51.074;3.788;2023-12-20T11:48:48;9.30;99.90
27226;DHT22;14732;51.074;3.788;2023-12-20T11:51:14;9.20;99.90
27226;DHT22;14732;51.074;3.788;2023-12-20T11:53:42;9.10;99.90
27226;DHT22;14732;51.074;3.788;2023-12-20T11:56:09;9.20;99.90
27226;DHT22;14732;51.074;3.788;2023-12-20T11:58:35;9.20;99.90
27226;DHT22;14732;51.074;3.788;2023-12-20T12:01:01;9.20;99.90
27226;DHT22;14732;51.074;3.788;2023-12-20T12:03:30;9.30;99.90
27226;DHT22;14732;51.074;3.788;2023-12-20T12:05:55;9.30;99.90
27226;DHT22;14732;51.074;3.788;2023-12-20T12:08:21;9.40;99.90
27226;DHT22;14732;51.074;3.788;2023-12-20T12:10:47;9.40;99.90
27226;DHT22;14732;51.074;3.788;2023-12-20T12:13:13;9.30;99.90
27226;DHT22;14732;51.074;3.788;2023-12-20T12:15:39;9.30;99.90
27226;DHT22;14732;51.074;3.788;2023-12-20T12:18:07;9.40;99.90
27226;DHT22;14732;51.074;3.788;2023-12-20T12:20:33;9.40;99.90
27226;DHT22;14732;51.074;3.788;2023-12-20T12:23:04;9.40;99.90
27226;DHT22;14732;51.074;3.788;2023-12-20T12:25:31;9.30;99.90
27226;DHT22;14732;51.074;3.788;2023-12-20T12:27:58;9.40;99.90
27226;DHT22;14732;51.074;3.788;2023-12-20T12:30:24;9.40;99.90
27226;DHT22;14732;51.074;3.788;2023-12-20T12:32:53;9.50;99.90
27226;DHT22;14732;51.074;3.788;2023-12-20T12:35:20;9.50;99.90
27226;DHT22;14732;51.074;3.788;2023-12-20T12:37:46;9.70;99.90
27226;DHT22;14732;51.074;3.788;2023-12-20T12:40:13;9.90;99.90
27226;DHT22;14732;51.074;3.788;2023-12-20T12:42:40;10.10;99.90
27226;DHT22;14732;51.074;3.788;2023-12-20T12:45:06;10.20;99.90
27226;DHT22;14732;51.074;3.788;2023-12-20T12:47:32;10.30;99.90
27226;DHT22;14732;51.074;3.788;2023-12-20T12:49:58;10.40;99.90
27226;DHT22;14732;51.074;3.788;2023-12-20T12:52:24;10.50;99.90
27226;DHT22;14732;51.074;3.788;2023-12-20T12:54:49;10.40;99.90
27226;DHT22;14732;51.074;3.788;2023-12-20T12:57:15;10.40;99.90
27226;DHT22;14732;51.074;3.788;2023-12-20T12:59:45;10.30;99.90
27226;DHT22;14732;51.074;3.788;2023-12-20T13:02:14;10.20;99.90
27226;DHT22;14732;51.074;3.788;2023-12-20T13:04:40;10.20;99.90
27226;DHT22;14732;51.074;3.788;2023-12-20T13:07:07;10.10;99.90
27226;DHT22;14732;51.074;3.788;2023-12-20T13:09:33;10.20;99.90
27226;DHT22;14732;51.074;3.788;2023-12-20T13:11:58;10.10;99.90
27226;DHT22;14732;51.074;3.788;2023-12-20T13:14:25;9.90;99.90
27226;DHT22;14732;51.074;3.788;2023-12-20T13:16:50;10.10;99.90
27226;DHT22;14732;51.074;3.788;2023-12-20T13:19:16;10.10;99.90
27226;DHT22;14732;51.074;3.788;2023-12-20T13:21:42;10.10;99.90
27226;DHT22;14732;51.074;3.788;2023-12-20T13:24:07;10.00;99.90
27226;DHT22;14732;51.074;3.788;2023-12-20T13:26:33;10.10;99.90
27226;DHT22;14732;51.074;3.788;2023-12-20T13:28:58;10.10;99.90
27226;DHT22;14732;51.074;3.788;2023-12-20T13:31:24;10.20;99.90
27226;DHT22;14732;51.074;3.788;2023-12-20T13:33:50;10.30;99.90
27226;DHT22;14732;51.074;3.788;2023-12-20T13:36:18;10.20;99.90
27226;DHT22;14732;51.074;3.788;2023-12-20T13:38:44;10.00;99.90
27226;DHT22;14732;51.074;3.788;2023-12-20T13:41:09;10.00;99.90
27226;DHT22;14732;51.074;3.788;2023-12-20T13:43:35;10.00;99.90
27226;DHT22;14732;51.074;3.788;2023-12-20T13:46:01;10.10;99.90
27226;DHT22;14732;51.074;3.788;2023-12-20T13:48:26;10.10;99.90
27226;DHT22;14732;51.074;3.788;2023-12-20T13:50:52;10.20;99.90
27226;DHT22;14732;51.074;3.788;2023-12-20T13:53:18;10.20;99.90
27226;DHT22;14732;51.074;3.788;2023-12-20T13:55:44;10.30;99.90
27226;DHT22;14732;51.074;3.788;2023-12-20T13:58:10;10.20;99.90
27226;DHT22;14732;51.074;3.788;2023-12-20T14:00:36;10.10;99.90
27226;DHT22;14732;51.074;3.788;2023-12-20T14:03:03;10.20;99.90
27226;DHT22;14732;51.074;3.788;2023-12-20T14:05:29;10.10;99.90
27226;DHT22;14732;51.074;3.788;2023-12-20T14:07:55;10.00;99.90
27226;DHT22;14732;51.074;3.788;2023-12-20T14:10:23;10.20;99.90
27226;DHT22;14732;51.074;3.788;2023-12-20T14:12:49;10.30;99.90
27226;DHT22;14732;51.074;3.788;2023-12-20T14:15:14;10.20;99.90
27226;DHT22;14732;51.074;3.788;2023-12-20T14:17:41;10.20;99.90
27226;DHT22;14732;51.074;3.788;2023-12-20T14:20:09;10.00;99.90
27226;DHT22;14732;51.074;3.788;2023-12-20T14:22:36;10.00;99.90
27226;DHT22;14732;51.074;3.788;2023-12-20T14:25:04;9.90;99.90
27226;DHT22;14732;51.074;3.788;2023-12-20T14:27:30;10.00;99.90
27226;DHT22;14732;51.074;3.788;2023-12-20T14:29:56;10.00;99.90
27226;DHT22;14732;51.074;3.788;2023-12-20T14:32:21;10.00;99.90
27226;DHT22;14732;51.074;3.788;2023-12-20T14:34:47;10.00;99.90
27226;DHT22;14732;51.074;3.788;2023-12-20T14:37:13;9.90;99.90
27226;DHT22;14732;51.074;3.788;2023-12-20T14:39:39;10.10;99.90
27226;DHT22;14732;51.074;3.788;2023-12-20T14:42:10;10.00;99.90
27226;DHT22;14732;51.074;3.788;2023-12-20T14:44:39;10.10;99.90
27226;DHT22;14732;51.074;3.788;2023-12-20T14:47:06;10.00;99.90
27226;DHT22;14732;51.074;3.788;2023-12-20T14:49:32;9.90;99.90
27226;DHT22;14732;51.074;3.788;2023-12-20T14:51:58;9.90;99.90
27226;DHT22;14732;51.074;3.788;2023-12-20T14:54:25;10.00;99.90
27226;DHT22;14732;51.074;3.788;2023-12-20T14:56:50;10.00;99.90
27226;DHT22;14732;51.074;3.788;2023-12-20T14:59:16;10.20;99.90
27226;DHT22;14732;51.074;3.788;2023-12-20T15:01:42;10.10;99.90
27226;DHT22;14732;51.074;3.788;2023-12-20T15:04:09;10.00;99.90
27226;DHT22;14732;51.074;3.788;2023-12-20T15:06:35;10.00;99.90
27226;DHT22;14732;51.074;3.788;2023-12-20T15:09:00;10.00;99.90
27226;DHT22;14732;51.074;3.788;2023-12-20T15:11:28;10.10;99.90
27226;DHT22;14732;51.074;3.788;2023-12-20T15:13:54;10.10;99.90
27226;DHT22;14732;51.074;3.788;2023-12-20T15:16:24;10.10;99.90
27226;DHT22;14732;51.074;3.788;2023-12-20T15:18:51;10.00;99.90
27226;DHT22;14732;51.074;3.788;2023-12-20T15:21:16;9.90;99.90
27226;DHT22;14732;51.074;3.788;2023-12-20T15:23:43;10.00;99.90
27226;DHT22;14732;51.074;3.788;2023-12-20T15:26:18;10.10;99.90
27226;DHT22;14732;51.074;3.788;2023-12-20T15:28:44;10.10;99.90
27226;DHT22;14732;51.074;3.788;2023-12-20T15:31:10;10.20;99.90
27226;DHT22;14732;51.074;3.788;2023-12-20T15:33:35;10.20;99.90
27226;DHT22;14732;51.074;3.788;2023-12-20T15:36:01;10.10;99.90
27226;DHT22;14732;51.074;3.788;2023-12-20T15:38:27;10.10;99.90